sensor_id;sensor_type;location;lat;lon;timestamp;P1;durP1;ratioP1;P2;durP2;ratioP2
72156;SDS011;60035;52.122;5.406;2023-04-16T00:01:03;9.10;;;2.53;;
72156;SDS011;60035;52.122;5.406;2023-04-16T00:03:30;9.60;;;2.17;;
72156;SDS011;60035;52.122;5.406;2023-04-16T00:05:57;5.72;;;2.00;;
72156;SDS011;60035;52.122;5.406;2023-04-16T00:08:24;7.57;;;2.13;;
72156;SDS011;60035;52.122;5.406;2023-04-16T00:10:51;12.68;;;2.13;;
72156;SDS011;60035;52.122;5.406;2023-04-16T00:13:19;10.60;;;1.95;;
72156;SDS011;60035;52.122;5.406;2023-04-16T00:15:46;5.30;;;1.60;;
72156;SDS011;60035;52.122;5.406;2023-04-16T00:18:12;5.18;;;1.73;;
72156;SDS011;60035;52.122;5.406;2023-04-16T00:20:39;11.52;;;1.92;;
72156;SDS011;60035;52.122;5.406;2023-04-16T00:23:07;9.57;;;1.92;;
72156;SDS011;60035;52.122;5.406;2023-04-16T00:25:33;6.10;;;1.60;;
72156;SDS011;60035;52.122;5.406;2023-04-16T00:27:59;6.15;;;1.58;;
72156;SDS011;60035;52.122;5.406;2023-04-16T00:30:26;8.25;;;1.55;;
72156;SDS011;60035;52.122;5.406;2023-04-16T00:32:53;5.78;;;1.55;;
72156;SDS011;60035;52.122;5.406;2023-04-16T00:35:19;8.68;;;1.85;;
72156;SDS011;60035;52.122;5.406;2023-04-16T00:37:46;5.10;;;1.55;;
72156;SDS011;60035;52.122;5.406;2023-04-16T00:40:12;8.18;;;1.48;;
72156;SDS011;60035;52.122;5.406;2023-04-16T00:42:39;8.25;;;2.20;;
72156;SDS011;60035;52.122;5.406;2023-04-16T00:45:06;5.18;;;1.58;;
72156;SDS011;60035;52.122;5.406;2023-04-16T00:47:33;9.88;;;2.25;;
72156;SDS011;60035;52.122;5.406;2023-04-16T00:50:01;8.63;;;2.30;;
72156;SDS011;60035;52.122;5.406;2023-04-16T00:52:30;8.98;;;1.85;;
72156;SDS011;60035;52.122;5.406;2023-04-16T00:54:58;7.82;;;2.30;;
72156;SDS011;60035;52.122;5.406;2023-04-16T00:57:24;7.75;;;2.30;;
72156;SDS011;60035;52.122;5.406;2023-04-16T00:59:52;14.23;;;2.78;;
72156;SDS011;60035;52.122;5.406;2023-04-16T01:02:19;12.55;;;2.63;;
72156;SDS011;60035;52.122;5.406;2023-04-16T01:04:46;6.30;;;1.98;;
72156;SDS011;60035;52.122;5.406;2023-04-16T01:07:12;8.95;;;2.88;;
72156;SDS011;60035;52.122;5.406;2023-04-16T01:09:39;7.75;;;2.13;;
72156;SDS011;60035;52.122;5.406;2023-04-16T01:12:05;8.10;;;2.50;;
72156;SDS011;60035;52.122;5.406;2023-04-16T01:14:32;8.77;;;2.15;;
72156;SDS011;60035;52.122;5.406;2023-04-16T01:17:01;11.00;;;2.58;;
72156;SDS011;60035;52.122;5.406;2023-04-16T01:19:29;10.50;;;2.75;;
72156;SDS011;60035;52.122;5.406;2023-04-16T01:22:02;7.45;;;2.85;;
72156;SDS011;60035;52.122;5.406;2023-04-16T01:24:29;7.82;;;2.63;;
72156;SDS011;60035;52.122;5.406;2023-04-16T01:26:58;9.40;;;2.47;;
72156;SDS011;60035;52.122;5.406;2023-04-16T01:29:25;12.50;;;2.47;;
72156;SDS011;60035;52.122;5.406;2023-04-16T01:31:53;14.27;;;2.78;;
72156;SDS011;60035;52.122;5.406;2023-04-16T01:34:19;10.18;;;2.88;;
72156;SDS011;60035;52.122;5.406;2023-04-16T01:36:46;9.43;;;2.85;;
72156;SDS011;60035;52.122;5.406;2023-04-16T01:39:12;14.93;;;3.80;;
72156;SDS011;60035;52.122;5.406;2023-04-16T01:41:41;11.15;;;2.97;;
72156;SDS011;60035;52.122;5.406;2023-04-16T01:44:08;11.10;;;2.67;;
72156;SDS011;60035;52.122;5.406;2023-04-16T01:46:35;14.23;;;2.90;;
72156;SDS011;60035;52.122;5.406;2023-04-16T01:49:03;10.77;;;3.13;;
72156;SDS011;60035;52.122;5.406;2023-04-16T01:51:32;15.90;;;3.75;;
72156;SDS011;60035;52.122;5.406;2023-04-16T01:53:59;10.43;;;2.90;;
72156;SDS011;60035;52.122;5.406;2023-04-16T01:56:26;14.50;;;3.67;;
72156;SDS011;60035;52.122;5.406;2023-04-16T01:58:52;12.60;;;3.60;;
72156;SDS011;60035;52.122;5.406;2023-04-16T02:01:19;10.80;;;3.22;;
72156;SDS011;60035;52.122;5.406;2023-04-16T02:03:46;9.50;;;2.55;;
72156;SDS011;60035;52.122;5.406;2023-04-16T02:06:13;12.73;;;3.72;;
72156;SDS011;60035;52.122;5.406;2023-04-16T02:08:40;15.98;;;4.45;;
72156;SDS011;60035;52.122;5.406;2023-04-16T02:11:07;15.07;;;4.22;;
72156;SDS011;60035;52.122;5.406;2023-04-16T02:13:33;11.65;;;3.72;;
72156;SDS011;60035;52.122;5.406;2023-04-16T02:16:00;14.25;;;4.55;;
72156;SDS011;60035;52.122;5.406;2023-04-16T02:18:27;12.63;;;3.58;;
72156;SDS011;60035;52.122;5.406;2023-04-16T02:20:56;18.75;;;4.47;;
72156;SDS011;60035;52.122;5.406;2023-04-16T02:23:23;21.60;;;5.47;;
72156;SDS011;60035;52.122;5.406;2023-04-16T02:25:50;16.80;;;5.07;;
72156;SDS011;60035;52.122;5.406;2023-04-16T02:28:16;17.17;;;5.45;;
72156;SDS011;60035;52.122;5.406;2023-04-16T02:30:43;16.05;;;4.60;;
72156;SDS011;60035;52.122;5.406;2023-04-16T02:33:10;18.35;;;5.38;;
72156;SDS011;60035;52.122;5.406;2023-04-16T02:35:38;16.67;;;5.00;;
72156;SDS011;60035;52.122;5.406;2023-04-16T02:38:05;16.38;;;4.97;;
72156;SDS011;60035;52.122;5.406;2023-04-16T02:40:32;15.55;;;5.18;;
72156;SDS011;60035;52.122;5.406;2023-04-16T02:43:00;15.50;;;5.72;;
72156;SDS011;60035;52.122;5.406;2023-04-16T02:45:27;16.70;;;5.28;;
72156;SDS011;60035;52.122;5.406;2023-04-16T02:47:53;18.48;;;5.88;;
72156;SDS011;60035;52.122;5.406;2023-04-16T02:50:20;15.77;;;5.45;;
72156;SDS011;60035;52.122;5.406;2023-04-16T02:52:46;19.50;;;6.20;;
72156;SDS011;60035;52.122;5.406;2023-04-16T02:55:13;14.43;;;4.53;;
72156;SDS011;60035;52.122;5.406;2023-04-16T02:57:40;15.57;;;4.95;;
72156;SDS011;60035;52.122;5.406;2023-04-16T03:00:08;15.05;;;4.88;;
72156;SDS011;60035;52.122;5.406;2023-04-16T03:02:35;15.77;;;5.63;;
72156;SDS011;60035;52.122;5.406;2023-04-16T03:05:02;17.77;;;4.90;;
72156;SDS011;60035;52.122;5.406;2023-04-16T03:07:29;14.05;;;4.35;;
72156;SDS011;60035;52.122;5.406;2023-04-16T03:09:55;20.55;;;6.18;;
72156;SDS011;60035;52.122;5.406;2023-04-16T03:12:22;18.83;;;6.00;;
72156;SDS011;60035;52.122;5.406;2023-04-16T03:14:49;11.70;;;4.65;;
72156;SDS011;60035;52.122;5.406;2023-04-16T03:17:17;17.25;;;6.43;;
72156;SDS011;60035;52.122;5.406;2023-04-16T03:19:44;14.65;;;4.55;;
72156;SDS011;60035;52.122;5.406;2023-04-16T03:22:11;18.17;;;6.07;;
72156;SDS011;60035;52.122;5.406;2023-04-16T03:24:38;19.77;;;6.55;;
72156;SDS011;60035;52.122;5.406;2023-04-16T03:27:04;19.38;;;5.78;;
72156;SDS011;60035;52.122;5.406;2023-04-16T03:29:31;17.05;;;5.72;;
72156;SDS011;60035;52.122;5.406;2023-04-16T03:31:57;19.23;;;6.28;;
72156;SDS011;60035;52.122;5.406;2023-04-16T03:34:24;20.30;;;5.38;;
72156;SDS011;60035;52.122;5.406;2023-04-16T03:36:51;20.70;;;6.47;;
72156;SDS011;60035;52.122;5.406;2023-04-16T03:39:17;18.45;;;5.72;;
72156;SDS011;60035;52.122;5.406;2023-04-16T03:41:44;14.45;;;5.38;;
72156;SDS011;60035;52.122;5.406;2023-04-16T03:44:11;15.15;;;5.30;;
72156;SDS011;60035;52.122;5.406;2023-04-16T03:46:38;11.50;;;4.15;;
72156;SDS011;60035;52.122;5.406;2023-04-16T03:49:04;19.30;;;6.20;;
72156;SDS011;60035;52.122;5.406;2023-04-16T03:51:31;16.65;;;5.70;;
72156;SDS011;60035;52.122;5.406;2023-04-16T03:53:58;12.48;;;4.53;;
72156;SDS011;60035;52.122;5.406;2023-04-16T03:56:24;16.45;;;5.80;;
72156;SDS011;60035;52.122;5.406;2023-04-16T03:58:51;22.80;;;6.13;;
72156;SDS011;60035;52.122;5.406;2023-04-16T04:01:17;19.17;;;5.88;;
72156;SDS011;60035;52.122;5.406;2023-04-16T04:03:44;19.23;;;6.53;;
72156;SDS011;60035;52.122;5.406;2023-04-16T04:06:11;20.55;;;6.80;;
72156;SDS011;60035;52.122;5.406;2023-04-16T04:08:37;19.60;;;6.70;;
72156;SDS011;60035;52.122;5.406;2023-04-16T04:11:04;19.55;;;7.10;;
72156;SDS011;60035;52.122;5.406;2023-04-16T04:13:31;17.50;;;5.40;;
72156;SDS011;60035;52.122;5.406;2023-04-16T04:15:57;14.73;;;5.90;;
72156;SDS011;60035;52.122;5.406;2023-04-16T04:18:24;19.63;;;6.88;;
72156;SDS011;60035;52.122;5.406;2023-04-16T04:20:50;22.63;;;5.63;;
72156;SDS011;60035;52.122;5.406;2023-04-16T04:23:17;15.43;;;6.00;;
72156;SDS011;60035;52.122;5.406;2023-04-16T04:25:44;16.90;;;6.80;;
72156;SDS011;60035;52.122;5.406;2023-04-16T04:28:11;18.25;;;6.85;;
72156;SDS011;60035;52.122;5.406;2023-04-16T04:30:37;19.00;;;7.90;;
72156;SDS011;60035;52.122;5.406;2023-04-16T04:33:04;15.07;;;4.80;;
72156;SDS011;60035;52.122;5.406;2023-04-16T04:35:31;18.88;;;6.68;;
72156;SDS011;60035;52.122;5.406;2023-04-16T04:37:59;19.05;;;6.18;;
72156;SDS011;60035;52.122;5.406;2023-04-16T04:40:27;14.57;;;5.40;;
72156;SDS011;60035;52.122;5.406;2023-04-16T04:42:54;23.10;;;7.38;;
72156;SDS011;60035;52.122;5.406;2023-04-16T04:45:21;16.65;;;6.45;;
72156;SDS011;60035;52.122;5.406;2023-04-16T04:47:53;16.80;;;5.43;;
72156;SDS011;60035;52.122;5.406;2023-04-16T04:50:20;15.73;;;5.80;;
72156;SDS011;60035;52.122;5.406;2023-04-16T04:52:47;20.05;;;6.30;;
72156;SDS011;60035;52.122;5.406;2023-04-16T04:55:14;19.25;;;6.57;;
72156;SDS011;60035;52.122;5.406;2023-04-16T04:57:41;24.75;;;7.25;;
72156;SDS011;60035;52.122;5.406;2023-04-16T05:00:08;19.60;;;7.00;;
72156;SDS011;60035;52.122;5.406;2023-04-16T05:02:35;19.27;;;6.22;;
72156;SDS011;60035;52.122;5.406;2023-04-16T05:05:02;17.77;;;6.25;;
72156;SDS011;60035;52.122;5.406;2023-04-16T05:07:29;21.00;;;6.68;;
72156;SDS011;60035;52.122;5.406;2023-04-16T05:09:55;20.40;;;6.85;;
72156;SDS011;60035;52.122;5.406;2023-04-16T05:12:22;19.48;;;6.28;;
72156;SDS011;60035;52.122;5.406;2023-04-16T05:14:49;17.80;;;6.35;;
72156;SDS011;60035;52.122;5.406;2023-04-16T05:17:15;20.25;;;5.60;;
72156;SDS011;60035;52.122;5.406;2023-04-16T05:19:42;14.77;;;5.07;;
72156;SDS011;60035;52.122;5.406;2023-04-16T05:22:09;18.33;;;6.65;;
72156;SDS011;60035;52.122;5.406;2023-04-16T05:24:35;18.85;;;6.55;;
72156;SDS011;60035;52.122;5.406;2023-04-16T05:27:02;19.50;;;5.88;;
72156;SDS011;60035;52.122;5.406;2023-04-16T05:29:28;19.30;;;6.03;;
72156;SDS011;60035;52.122;5.406;2023-04-16T05:31:55;16.90;;;6.43;;
72156;SDS011;60035;52.122;5.406;2023-04-16T05:34:22;25.50;;;7.85;;
72156;SDS011;60035;52.122;5.406;2023-04-16T05:36:48;22.45;;;7.35;;
72156;SDS011;60035;52.122;5.406;2023-04-16T05:39:15;20.90;;;7.10;;
72156;SDS011;60035;52.122;5.406;2023-04-16T05:41:42;23.40;;;5.40;;
72156;SDS011;60035;52.122;5.406;2023-04-16T05:44:09;21.65;;;6.85;;
72156;SDS011;60035;52.122;5.406;2023-04-16T05:46:35;23.92;;;6.55;;
72156;SDS011;60035;52.122;5.406;2023-04-16T05:49:02;25.10;;;7.40;;
72156;SDS011;60035;52.122;5.406;2023-04-16T05:51:28;24.13;;;7.45;;
72156;SDS011;60035;52.122;5.406;2023-04-16T05:53:55;20.67;;;6.78;;
72156;SDS011;60035;52.122;5.406;2023-04-16T05:56:21;22.05;;;7.07;;
72156;SDS011;60035;52.122;5.406;2023-04-16T05:58:48;21.73;;;7.05;;
72156;SDS011;60035;52.122;5.406;2023-04-16T06:01:15;22.77;;;6.70;;
72156;SDS011;60035;52.122;5.406;2023-04-16T06:03:42;23.63;;;6.82;;
72156;SDS011;60035;52.122;5.406;2023-04-16T06:06:08;17.52;;;5.57;;
72156;SDS011;60035;52.122;5.406;2023-04-16T06:08:35;19.08;;;6.78;;
72156;SDS011;60035;52.122;5.406;2023-04-16T06:11:02;18.15;;;6.60;;
72156;SDS011;60035;52.122;5.406;2023-04-16T06:13:29;18.60;;;7.13;;
72156;SDS011;60035;52.122;5.406;2023-04-16T06:15:55;18.45;;;6.63;;
72156;SDS011;60035;52.122;5.406;2023-04-16T06:18:22;18.70;;;5.88;;
72156;SDS011;60035;52.122;5.406;2023-04-16T06:20:48;25.45;;;7.40;;
72156;SDS011;60035;52.122;5.406;2023-04-16T06:23:15;22.63;;;6.80;;
72156;SDS011;60035;52.122;5.406;2023-04-16T06:25:42;19.38;;;7.35;;
72156;SDS011;60035;52.122;5.406;2023-04-16T06:28:09;22.73;;;6.88;;
72156;SDS011;60035;52.122;5.406;2023-04-16T06:30:35;20.17;;;7.57;;
72156;SDS011;60035;52.122;5.406;2023-04-16T06:33:02;21.63;;;7.70;;
72156;SDS011;60035;52.122;5.406;2023-04-16T06:35:28;23.15;;;7.57;;
72156;SDS011;60035;52.122;5.406;2023-04-16T06:37:55;24.98;;;8.60;;
72156;SDS011;60035;52.122;5.406;2023-04-16T06:40:22;18.73;;;6.78;;
72156;SDS011;60035;52.122;5.406;2023-04-16T06:42:48;19.42;;;6.60;;
72156;SDS011;60035;52.122;5.406;2023-04-16T06:45:15;19.92;;;6.55;;
72156;SDS011;60035;52.122;5.406;2023-04-16T06:47:41;23.23;;;8.18;;
72156;SDS011;60035;52.122;5.406;2023-04-16T06:50:08;24.48;;;8.40;;
72156;SDS011;60035;52.122;5.406;2023-04-16T06:52:35;21.77;;;7.95;;
72156;SDS011;60035;52.122;5.406;2023-04-16T06:55:02;25.15;;;8.35;;
72156;SDS011;60035;52.122;5.406;2023-04-16T06:57:28;20.77;;;7.53;;
72156;SDS011;60035;52.122;5.406;2023-04-16T06:59:55;17.85;;;7.22;;
72156;SDS011;60035;52.122;5.406;2023-04-16T07:02:23;22.23;;;8.10;;
72156;SDS011;60035;52.122;5.406;2023-04-16T07:04:50;22.55;;;7.97;;
72156;SDS011;60035;52.122;5.406;2023-04-16T07:07:17;20.17;;;6.88;;
72156;SDS011;60035;52.122;5.406;2023-04-16T07:09:44;22.00;;;7.57;;
72156;SDS011;60035;52.122;5.406;2023-04-16T07:12:10;23.33;;;8.13;;
72156;SDS011;60035;52.122;5.406;2023-04-16T07:14:37;23.08;;;8.50;;
72156;SDS011;60035;52.122;5.406;2023-04-16T07:17:04;22.92;;;7.85;;
72156;SDS011;60035;52.122;5.406;2023-04-16T07:19:31;24.42;;;8.52;;
72156;SDS011;60035;52.122;5.406;2023-04-16T07:21:58;30.33;;;8.93;;
72156;SDS011;60035;52.122;5.406;2023-04-16T07:24:25;21.80;;;8.43;;
72156;SDS011;60035;52.122;5.406;2023-04-16T07:26:51;22.25;;;8.05;;
72156;SDS011;60035;52.122;5.406;2023-04-16T07:29:18;24.05;;;8.80;;
72156;SDS011;60035;52.122;5.406;2023-04-16T07:31:44;18.58;;;7.85;;
72156;SDS011;60035;52.122;5.406;2023-04-16T07:34:11;15.32;;;5.07;;
72156;SDS011;60035;52.122;5.406;2023-04-16T07:36:38;19.15;;;7.75;;
72156;SDS011;60035;52.122;5.406;2023-04-16T07:39:05;18.20;;;7.00;;
72156;SDS011;60035;52.122;5.406;2023-04-16T07:41:31;19.70;;;6.15;;
72156;SDS011;60035;52.122;5.406;2023-04-16T07:43:58;18.83;;;7.95;;
72156;SDS011;60035;52.122;5.406;2023-04-16T07:46:25;20.48;;;7.75;;
72156;SDS011;60035;52.122;5.406;2023-04-16T07:49:01;19.92;;;7.40;;
72156;SDS011;60035;52.122;5.406;2023-04-16T07:51:27;23.20;;;7.18;;
72156;SDS011;60035;52.122;5.406;2023-04-16T07:53:57;22.83;;;8.15;;
72156;SDS011;60035;52.122;5.406;2023-04-16T07:56:23;16.30;;;7.28;;
72156;SDS011;60035;52.122;5.406;2023-04-16T07:58:51;21.38;;;7.20;;
72156;SDS011;60035;52.122;5.406;2023-04-16T08:01:17;20.13;;;6.65;;
72156;SDS011;60035;52.122;5.406;2023-04-16T08:03:44;21.00;;;6.75;;
72156;SDS011;60035;52.122;5.406;2023-04-16T08:06:11;14.07;;;5.85;;
72156;SDS011;60035;52.122;5.406;2023-04-16T08:08:37;17.90;;;7.38;;
72156;SDS011;60035;52.122;5.406;2023-04-16T08:11:04;16.17;;;7.28;;
72156;SDS011;60035;52.122;5.406;2023-04-16T08:13:31;15.27;;;6.32;;
72156;SDS011;60035;52.122;5.406;2023-04-16T08:15:58;16.15;;;6.20;;
72156;SDS011;60035;52.122;5.406;2023-04-16T08:18:25;11.90;;;4.78;;
72156;SDS011;60035;52.122;5.406;2023-04-16T08:20:52;12.18;;;5.00;;
72156;SDS011;60035;52.122;5.406;2023-04-16T08:23:18;13.85;;;5.97;;
72156;SDS011;60035;52.122;5.406;2023-04-16T08:25:46;15.68;;;5.70;;
72156;SDS011;60035;52.122;5.406;2023-04-16T08:28:13;14.70;;;5.45;;
72156;SDS011;60035;52.122;5.406;2023-04-16T08:30:39;15.40;;;5.28;;
72156;SDS011;60035;52.122;5.406;2023-04-16T08:33:06;14.07;;;5.43;;
72156;SDS011;60035;52.122;5.406;2023-04-16T08:35:32;14.40;;;5.32;;
72156;SDS011;60035;52.122;5.406;2023-04-16T08:37:59;13.05;;;4.88;;
72156;SDS011;60035;52.122;5.406;2023-04-16T08:40:27;12.02;;;4.70;;
72156;SDS011;60035;52.122;5.406;2023-04-16T08:42:57;13.15;;;4.95;;
72156;SDS011;60035;52.122;5.406;2023-04-16T08:45:25;11.85;;;4.78;;
72156;SDS011;60035;52.122;5.406;2023-04-16T08:47:52;11.75;;;5.22;;
72156;SDS011;60035;52.122;5.406;2023-04-16T08:50:23;12.55;;;5.10;;
72156;SDS011;60035;52.122;5.406;2023-04-16T08:52:52;11.55;;;4.28;;
72156;SDS011;60035;52.122;5.406;2023-04-16T08:55:22;10.25;;;3.92;;
72156;SDS011;60035;52.122;5.406;2023-04-16T08:58:21;11.50;;;4.93;;
72156;SDS011;60035;52.122;5.406;2023-04-16T09:00:48;11.82;;;4.45;;
72156;SDS011;60035;52.122;5.406;2023-04-16T09:03:16;11.63;;;4.55;;
72156;SDS011;60035;52.122;5.406;2023-04-16T09:05:45;11.43;;;3.85;;
72156;SDS011;60035;52.122;5.406;2023-04-16T09:08:12;10.43;;;4.13;;
72156;SDS011;60035;52.122;5.406;2023-04-16T09:10:39;8.80;;;3.67;;
72156;SDS011;60035;52.122;5.406;2023-04-16T09:13:05;10.80;;;4.45;;
72156;SDS011;60035;52.122;5.406;2023-04-16T09:15:34;11.02;;;4.47;;
72156;SDS011;60035;52.122;5.406;2023-04-16T09:18:01;10.73;;;4.38;;
72156;SDS011;60035;52.122;5.406;2023-04-16T09:20:28;11.73;;;5.13;;
72156;SDS011;60035;52.122;5.406;2023-04-16T09:22:54;11.85;;;3.53;;
72156;SDS011;60035;52.122;5.406;2023-04-16T09:25:22;11.07;;;4.35;;
72156;SDS011;60035;52.122;5.406;2023-04-16T09:27:50;9.88;;;3.28;;
72156;SDS011;60035;52.122;5.406;2023-04-16T09:30:20;12.50;;;3.78;;
72156;SDS011;60035;52.122;5.406;2023-04-16T09:32:49;10.02;;;3.88;;
72156;SDS011;60035;52.122;5.406;2023-04-16T09:35:17;10.80;;;4.38;;
72156;SDS011;60035;52.122;5.406;2023-04-16T09:37:57;12.88;;;4.10;;
72156;SDS011;60035;52.122;5.406;2023-04-16T09:40:24;8.55;;;3.97;;
72156;SDS011;60035;52.122;5.406;2023-04-16T09:42:55;12.50;;;4.80;;
72156;SDS011;60035;52.122;5.406;2023-04-16T09:45:23;12.23;;;4.68;;
72156;SDS011;60035;52.122;5.406;2023-04-16T09:47:49;9.43;;;3.97;;
72156;SDS011;60035;52.122;5.406;2023-04-16T09:50:17;12.05;;;4.82;;
72156;SDS011;60035;52.122;5.406;2023-04-16T09:52:47;10.38;;;4.82;;
72156;SDS011;60035;52.122;5.406;2023-04-16T09:55:15;11.65;;;5.05;;
72156;SDS011;60035;52.122;5.406;2023-04-16T09:57:47;12.52;;;5.22;;
72156;SDS011;60035;52.122;5.406;2023-04-16T10:00:17;12.07;;;5.38;;
72156;SDS011;60035;52.122;5.406;2023-04-16T10:02:44;12.23;;;4.72;;
72156;SDS011;60035;52.122;5.406;2023-04-16T10:05:13;12.05;;;4.72;;
72156;SDS011;60035;52.122;5.406;2023-04-16T10:07:42;13.05;;;5.00;;
72156;SDS011;60035;52.122;5.406;2023-04-16T10:10:09;11.05;;;4.22;;
72156;SDS011;60035;52.122;5.406;2023-04-16T10:12:36;11.60;;;4.43;;
72156;SDS011;60035;52.122;5.406;2023-04-16T10:15:03;11.18;;;5.18;;
72156;SDS011;60035;52.122;5.406;2023-04-16T10:17:30;14.85;;;4.90;;
72156;SDS011;60035;52.122;5.406;2023-04-16T10:19:57;16.60;;;6.85;;
72156;SDS011;60035;52.122;5.406;2023-04-16T10:22:24;15.45;;;6.47;;
72156;SDS011;60035;52.122;5.406;2023-04-16T10:24:51;17.45;;;7.00;;
72156;SDS011;60035;52.122;5.406;2023-04-16T10:27:18;17.30;;;6.85;;
72156;SDS011;60035;52.122;5.406;2023-04-16T10:29:45;12.20;;;4.80;;
72156;SDS011;60035;52.122;5.406;2023-04-16T10:32:14;15.52;;;7.03;;
72156;SDS011;60035;52.122;5.406;2023-04-16T10:34:42;14.50;;;6.25;;
72156;SDS011;60035;52.122;5.406;2023-04-16T10:37:09;14.38;;;6.53;;
72156;SDS011;60035;52.122;5.406;2023-04-16T10:39:37;17.92;;;6.90;;
72156;SDS011;60035;52.122;5.406;2023-04-16T10:42:10;16.95;;;6.70;;
72156;SDS011;60035;52.122;5.406;2023-04-16T10:44:38;16.10;;;6.30;;
72156;SDS011;60035;52.122;5.406;2023-04-16T10:47:10;17.85;;;6.38;;
72156;SDS011;60035;52.122;5.406;2023-04-16T10:49:38;16.65;;;6.00;;
72156;SDS011;60035;52.122;5.406;2023-04-16T10:52:11;15.23;;;6.20;;
72156;SDS011;60035;52.122;5.406;2023-04-16T10:54:42;18.98;;;7.28;;
72156;SDS011;60035;52.122;5.406;2023-04-16T10:57:09;21.05;;;7.82;;
72156;SDS011;60035;52.122;5.406;2023-04-16T10:59:41;19.73;;;7.43;;
72156;SDS011;60035;52.122;5.406;2023-04-16T11:02:14;18.02;;;7.05;;
72156;SDS011;60035;52.122;5.406;2023-04-16T11:04:47;19.35;;;7.45;;
72156;SDS011;60035;52.122;5.406;2023-04-16T11:07:18;15.75;;;7.35;;
72156;SDS011;60035;52.122;5.406;2023-04-16T11:09:50;17.58;;;7.03;;
72156;SDS011;60035;52.122;5.406;2023-04-16T11:12:19;17.80;;;7.18;;
72156;SDS011;60035;52.122;5.406;2023-04-16T11:14:52;16.92;;;6.90;;
72156;SDS011;60035;52.122;5.406;2023-04-16T11:17:20;16.95;;;7.03;;
72156;SDS011;60035;52.122;5.406;2023-04-16T11:19:47;16.45;;;6.63;;
72156;SDS011;60035;52.122;5.406;2023-04-16T11:22:15;16.13;;;7.18;;
72156;SDS011;60035;52.122;5.406;2023-04-16T11:24:43;18.15;;;6.93;;
72156;SDS011;60035;52.122;5.406;2023-04-16T11:27:11;14.68;;;7.10;;
72156;SDS011;60035;52.122;5.406;2023-04-16T11:29:39;15.18;;;6.22;;
72156;SDS011;60035;52.122;5.406;2023-04-16T11:32:05;16.08;;;6.72;;
72156;SDS011;60035;52.122;5.406;2023-04-16T11:34:32;13.88;;;6.22;;
72156;SDS011;60035;52.122;5.406;2023-04-16T11:36:59;14.57;;;6.35;;
72156;SDS011;60035;52.122;5.406;2023-04-16T11:39:26;18.25;;;6.72;;
72156;SDS011;60035;52.122;5.406;2023-04-16T11:41:53;16.95;;;7.55;;
72156;SDS011;60035;52.122;5.406;2023-04-16T11:44:24;18.88;;;7.78;;
72156;SDS011;60035;52.122;5.406;2023-04-16T11:46:52;15.27;;;6.85;;
72156;SDS011;60035;52.122;5.406;2023-04-16T11:49:26;16.30;;;7.63;;
72156;SDS011;60035;52.122;5.406;2023-04-16T11:51:54;17.23;;;7.60;;
72156;SDS011;60035;52.122;5.406;2023-04-16T11:54:22;19.13;;;7.10;;
72156;SDS011;60035;52.122;5.406;2023-04-16T11:56:50;20.42;;;7.97;;
72156;SDS011;60035;52.122;5.406;2023-04-16T11:59:19;16.17;;;7.38;;
72156;SDS011;60035;52.122;5.406;2023-04-16T12:01:52;19.02;;;7.30;;
72156;SDS011;60035;52.122;5.406;2023-04-16T12:04:23;16.85;;;7.35;;
72156;SDS011;60035;52.122;5.406;2023-04-16T12:07:07;19.23;;;8.10;;
72156;SDS011;60035;52.122;5.406;2023-04-16T12:09:39;14.48;;;6.70;;
72156;SDS011;60035;52.122;5.406;2023-04-16T12:12:26;20.52;;;6.90;;
72156;SDS011;60035;52.122;5.406;2023-04-16T12:14:57;15.75;;;6.90;;
72156;SDS011;60035;52.122;5.406;2023-04-16T12:17:32;16.00;;;6.13;;
72156;SDS011;60035;52.122;5.406;2023-04-16T12:20:07;16.50;;;6.75;;
72156;SDS011;60035;52.122;5.406;2023-04-16T12:22:37;19.45;;;6.82;;
72156;SDS011;60035;52.122;5.406;2023-04-16T12:25:12;16.90;;;5.95;;
72156;SDS011;60035;52.122;5.406;2023-04-16T12:27:48;15.25;;;6.28;;
72156;SDS011;60035;52.122;5.406;2023-04-16T12:30:19;14.48;;;6.65;;
72156;SDS011;60035;52.122;5.406;2023-04-16T12:33:30;14.73;;;6.50;;
72156;SDS011;60035;52.122;5.406;2023-04-16T12:35:42;16.08;;;6.20;;
72156;SDS011;60035;52.122;5.406;2023-04-16T12:38:10;17.05;;;7.15;;
72156;SDS011;60035;52.122;5.406;2023-04-16T12:40:37;13.13;;;6.10;;
72156;SDS011;60035;52.122;5.406;2023-04-16T12:43:03;13.73;;;6.05;;
72156;SDS011;60035;52.122;5.406;2023-04-16T12:45:30;11.68;;;5.53;;
72156;SDS011;60035;52.122;5.406;2023-04-16T12:47:57;15.40;;;6.15;;
72156;SDS011;60035;52.122;5.406;2023-04-16T12:50:24;13.35;;;5.68;;
72156;SDS011;60035;52.122;5.406;2023-04-16T12:52:51;13.90;;;5.75;;
72156;SDS011;60035;52.122;5.406;2023-04-16T12:55:18;15.10;;;5.68;;
72156;SDS011;60035;52.122;5.406;2023-04-16T12:57:44;13.88;;;6.03;;
72156;SDS011;60035;52.122;5.406;2023-04-16T13:00:14;17.00;;;7.13;;
72156;SDS011;60035;52.122;5.406;2023-04-16T13:02:41;15.73;;;6.65;;
72156;SDS011;60035;52.122;5.406;2023-04-16T13:05:08;18.95;;;7.10;;
72156;SDS011;60035;52.122;5.406;2023-04-16T13:07:35;17.13;;;8.10;;
72156;SDS011;60035;52.122;5.406;2023-04-16T13:10:01;20.50;;;7.25;;
72156;SDS011;60035;52.122;5.406;2023-04-16T13:12:28;21.67;;;7.97;;
72156;SDS011;60035;52.122;5.406;2023-04-16T13:14:55;18.52;;;7.70;;
72156;SDS011;60035;52.122;5.406;2023-04-16T13:17:21;21.90;;;8.15;;
72156;SDS011;60035;52.122;5.406;2023-04-16T13:19:48;21.98;;;7.93;;
72156;SDS011;60035;52.122;5.406;2023-04-16T13:22:15;20.95;;;8.10;;
72156;SDS011;60035;52.122;5.406;2023-04-16T13:24:41;18.13;;;6.55;;
72156;SDS011;60035;52.122;5.406;2023-04-16T13:27:08;19.10;;;8.70;;
72156;SDS011;60035;52.122;5.406;2023-04-16T13:29:34;22.35;;;7.80;;
72156;SDS011;60035;52.122;5.406;2023-04-16T13:32:02;22.50;;;8.35;;
72156;SDS011;60035;52.122;5.406;2023-04-16T13:34:29;24.23;;;8.20;;
72156;SDS011;60035;52.122;5.406;2023-04-16T13:36:55;18.48;;;7.63;;
72156;SDS011;60035;52.122;5.406;2023-04-16T13:39:22;25.17;;;8.35;;
72156;SDS011;60035;52.122;5.406;2023-04-16T13:41:49;18.00;;;6.55;;
72156;SDS011;60035;52.122;5.406;2023-04-16T13:44:16;21.35;;;7.75;;
72156;SDS011;60035;52.122;5.406;2023-04-16T13:46:43;22.52;;;8.15;;
72156;SDS011;60035;52.122;5.406;2023-04-16T13:49:13;20.15;;;7.88;;
72156;SDS011;60035;52.122;5.406;2023-04-16T13:51:41;23.60;;;8.70;;
72156;SDS011;60035;52.122;5.406;2023-04-16T13:54:09;20.95;;;7.00;;
72156;SDS011;60035;52.122;5.406;2023-04-16T13:56:36;19.40;;;7.10;;
72156;SDS011;60035;52.122;5.406;2023-04-16T13:59:02;17.90;;;7.38;;
72156;SDS011;60035;52.122;5.406;2023-04-16T14:01:29;15.73;;;6.78;;
72156;SDS011;60035;52.122;5.406;2023-04-16T14:03:56;17.13;;;6.68;;
72156;SDS011;60035;52.122;5.406;2023-04-16T14:06:24;18.88;;;6.63;;
72156;SDS011;60035;52.122;5.406;2023-04-16T14:08:52;15.10;;;7.00;;
72156;SDS011;60035;52.122;5.406;2023-04-16T14:11:18;21.17;;;6.97;;
72156;SDS011;60035;52.122;5.406;2023-04-16T14:13:45;18.35;;;6.78;;
72156;SDS011;60035;52.122;5.406;2023-04-16T14:16:12;16.75;;;6.82;;
72156;SDS011;60035;52.122;5.406;2023-04-16T14:18:39;15.63;;;6.75;;
72156;SDS011;60035;52.122;5.406;2023-04-16T14:21:07;18.20;;;6.65;;
72156;SDS011;60035;52.122;5.406;2023-04-16T14:23:34;14.98;;;5.95;;
72156;SDS011;60035;52.122;5.406;2023-04-16T14:26:00;15.35;;;6.38;;
72156;SDS011;60035;52.122;5.406;2023-04-16T14:28:27;18.88;;;7.10;;
72156;SDS011;60035;52.122;5.406;2023-04-16T14:30:54;14.50;;;6.40;;
72156;SDS011;60035;52.122;5.406;2023-04-16T14:33:20;13.60;;;5.65;;
72156;SDS011;60035;52.122;5.406;2023-04-16T14:35:47;16.63;;;6.47;;
72156;SDS011;60035;52.122;5.406;2023-04-16T14:38:15;17.63;;;6.63;;